Аэропорт: Кневичи. Владивосток

ICAO: UHWW

METAR:
2021-04-21 19:00:00
UHWW 211900Z 35002MPS 9000 NSC 01/M05 Q1023 R25L/0///70 NOSIG RMK QFE766
METAR:
2021-04-21 17:00:00
TAF UHWW 211700Z 2118/2218 10003MPS 9999 NSC TEMPO 2118/2121 6000 BECMG 2200/2202 18003MPS TEMPO 2202/2209 19012MPS SCT030